sensor_id;sensor_type;location;lat;lon;timestamp;P1;durP1;ratioP1;P2;durP2;ratioP2
5349;SDS011;2697;42.144;24.794;2023-09-19T00:00:19;12.27;;;6.57;;
5349;SDS011;2697;42.144;24.794;2023-09-19T00:02:52;17.07;;;6.50;;
5349;SDS011;2697;42.144;24.794;2023-09-19T00:05:18;10.30;;;5.73;;
5349;SDS011;2697;42.144;24.794;2023-09-19T00:07:44;24.33;;;6.80;;
5349;SDS011;2697;42.144;24.794;2023-09-19T00:10:10;10.23;;;5.40;;
5349;SDS011;2697;42.144;24.794;2023-09-19T00:12:35;23.07;;;8.33;;
5349;SDS011;2697;42.144;24.794;2023-09-19T00:15:00;20.23;;;6.90;;
5349;SDS011;2697;42.144;24.794;2023-09-19T00:17:31;8.43;;;5.50;;
5349;SDS011;2697;42.144;24.794;2023-09-19T00:19:57;15.67;;;5.57;;
5349;SDS011;2697;42.144;24.794;2023-09-19T00:22:22;14.40;;;7.13;;
5349;SDS011;2697;42.144;24.794;2023-09-19T00:24:51;21.13;;;5.10;;
5349;SDS011;2697;42.144;24.794;2023-09-19T00:27:17;10.40;;;5.40;;
5349;SDS011;2697;42.144;24.794;2023-09-19T00:29:43;9.20;;;4.87;;
5349;SDS011;2697;42.144;24.794;2023-09-19T00:32:09;11.03;;;4.77;;
5349;SDS011;2697;42.144;24.794;2023-09-19T00:34:34;10.07;;;5.10;;
5349;SDS011;2697;42.144;24.794;2023-09-19T00:37:00;16.00;;;6.13;;
5349;SDS011;2697;42.144;24.794;2023-09-19T00:39:26;8.97;;;4.97;;
5349;SDS011;2697;42.144;24.794;2023-09-19T00:41:52;7.30;;;4.50;;
5349;SDS011;2697;42.144;24.794;2023-09-19T00:44:19;8.57;;;5.43;;
5349;SDS011;2697;42.144;24.794;2023-09-19T00:46:48;7.30;;;5.83;;
5349;SDS011;2697;42.144;24.794;2023-09-19T00:49:15;10.90;;;5.60;;
5349;SDS011;2697;42.144;24.794;2023-09-19T00:51:41;11.30;;;6.20;;
5349;SDS011;2697;42.144;24.794;2023-09-19T00:54:06;8.83;;;5.30;;
5349;SDS011;2697;42.144;24.794;2023-09-19T00:56:32;19.83;;;5.30;;
5349;SDS011;2697;42.144;24.794;2023-09-19T00:58:58;9.57;;;5.70;;
5349;SDS011;2697;42.144;24.794;2023-09-19T01:01:24;13.10;;;6.37;;
5349;SDS011;2697;42.144;24.794;2023-09-19T01:03:50;14.73;;;5.83;;
5349;SDS011;2697;42.144;24.794;2023-09-19T01:06:15;9.37;;;5.63;;
5349;SDS011;2697;42.144;24.794;2023-09-19T01:08:42;14.83;;;6.33;;
5349;SDS011;2697;42.144;24.794;2023-09-19T01:11:13;14.93;;;6.90;;
5349;SDS011;2697;42.144;24.794;2023-09-19T01:13:55;18.13;;;7.30;;
5349;SDS011;2697;42.144;24.794;2023-09-19T01:16:31;11.87;;;5.23;;
5349;SDS011;2697;42.144;24.794;2023-09-19T01:19:25;20.17;;;6.37;;
5349;SDS011;2697;42.144;24.794;2023-09-19T01:22:07;22.03;;;6.60;;
5349;SDS011;2697;42.144;24.794;2023-09-19T01:30:43;10.13;;;6.30;;
5349;SDS011;2697;42.144;24.794;2023-09-19T01:33:09;8.67;;;5.93;;
5349;SDS011;2697;42.144;24.794;2023-09-19T01:35:39;10.97;;;6.20;;
5349;SDS011;2697;42.144;24.794;2023-09-19T01:38:05;11.17;;;6.43;;
5349;SDS011;2697;42.144;24.794;2023-09-19T01:40:41;20.50;;;6.10;;
5349;SDS011;2697;42.144;24.794;2023-09-19T01:43:12;16.57;;;7.67;;
5349;SDS011;2697;42.144;24.794;2023-09-19T01:46:09;52.07;;;7.93;;
5349;SDS011;2697;42.144;24.794;2023-09-19T01:49:03;29.13;;;8.70;;
5349;SDS011;2697;42.144;24.794;2023-09-19T01:54:32;14.60;;;6.50;;
5349;SDS011;2697;42.144;24.794;2023-09-19T01:57:07;32.33;;;7.37;;
5349;SDS011;2697;42.144;24.794;2023-09-19T01:59:43;12.77;;;6.73;;
5349;SDS011;2697;42.144;24.794;2023-09-19T02:02:22;16.30;;;7.10;;
5349;SDS011;2697;42.144;24.794;2023-09-19T02:04:49;14.73;;;6.27;;
5349;SDS011;2697;42.144;24.794;2023-09-19T02:07:15;23.10;;;6.20;;
5349;SDS011;2697;42.144;24.794;2023-09-19T02:09:41;14.23;;;7.63;;
5349;SDS011;2697;42.144;24.794;2023-09-19T02:12:08;15.70;;;7.17;;
5349;SDS011;2697;42.144;24.794;2023-09-19T02:14:34;12.53;;;8.00;;
5349;SDS011;2697;42.144;24.794;2023-09-19T02:17:01;22.00;;;7.17;;
5349;SDS011;2697;42.144;24.794;2023-09-19T02:19:31;9.27;;;6.07;;
5349;SDS011;2697;42.144;24.794;2023-09-19T02:21:58;24.67;;;8.00;;
5349;SDS011;2697;42.144;24.794;2023-09-19T02:24:24;17.10;;;6.77;;
5349;SDS011;2697;42.144;24.794;2023-09-19T02:26:51;22.43;;;8.00;;
5349;SDS011;2697;42.144;24.794;2023-09-19T02:29:17;10.17;;;6.40;;
5349;SDS011;2697;42.144;24.794;2023-09-19T02:31:42;12.40;;;8.30;;
5349;SDS011;2697;42.144;24.794;2023-09-19T02:34:08;13.67;;;6.90;;
5349;SDS011;2697;42.144;24.794;2023-09-19T02:36:33;17.20;;;7.87;;
5349;SDS011;2697;42.144;24.794;2023-09-19T02:38:59;18.10;;;7.27;;
5349;SDS011;2697;42.144;24.794;2023-09-19T02:41:24;14.47;;;6.13;;
5349;SDS011;2697;42.144;24.794;2023-09-19T02:43:50;10.03;;;6.07;;
5349;SDS011;2697;42.144;24.794;2023-09-19T02:46:15;14.63;;;5.83;;
5349;SDS011;2697;42.144;24.794;2023-09-19T02:48:41;17.30;;;6.37;;
5349;SDS011;2697;42.144;24.794;2023-09-19T02:51:07;10.23;;;6.60;;
5349;SDS011;2697;42.144;24.794;2023-09-19T02:53:32;18.90;;;6.90;;
5349;SDS011;2697;42.144;24.794;2023-09-19T02:55:58;12.70;;;6.17;;
5349;SDS011;2697;42.144;24.794;2023-09-19T02:58:24;11.07;;;6.10;;
5349;SDS011;2697;42.144;24.794;2023-09-19T03:00:50;17.63;;;6.40;;
5349;SDS011;2697;42.144;24.794;2023-09-19T03:03:16;19.87;;;6.30;;
5349;SDS011;2697;42.144;24.794;2023-09-19T03:05:42;13.30;;;6.40;;
5349;SDS011;2697;42.144;24.794;2023-09-19T03:08:12;15.87;;;5.93;;
5349;SDS011;2697;42.144;24.794;2023-09-19T03:10:39;10.90;;;5.70;;
5349;SDS011;2697;42.144;24.794;2023-09-19T03:13:05;13.50;;;6.37;;
5349;SDS011;2697;42.144;24.794;2023-09-19T03:15:32;15.47;;;7.50;;
5349;SDS011;2697;42.144;24.794;2023-09-19T03:17:58;12.00;;;6.40;;
5349;SDS011;2697;42.144;24.794;2023-09-19T03:20:24;15.40;;;6.47;;
5349;SDS011;2697;42.144;24.794;2023-09-19T03:22:50;13.23;;;6.37;;
5349;SDS011;2697;42.144;24.794;2023-09-19T03:25:17;13.47;;;5.80;;
5349;SDS011;2697;42.144;24.794;2023-09-19T03:27:42;14.90;;;6.27;;
5349;SDS011;2697;42.144;24.794;2023-09-19T03:30:08;13.00;;;6.03;;
5349;SDS011;2697;42.144;24.794;2023-09-19T03:32:36;8.13;;;5.37;;
5349;SDS011;2697;42.144;24.794;2023-09-19T03:35:02;10.03;;;6.07;;
5349;SDS011;2697;42.144;24.794;2023-09-19T03:37:34;11.97;;;6.00;;
5349;SDS011;2697;42.144;24.794;2023-09-19T03:39:59;15.20;;;6.30;;
5349;SDS011;2697;42.144;24.794;2023-09-19T03:42:29;12.80;;;6.40;;
5349;SDS011;2697;42.144;24.794;2023-09-19T03:44:55;11.13;;;5.40;;
5349;SDS011;2697;42.144;24.794;2023-09-19T03:47:21;11.07;;;6.53;;
5349;SDS011;2697;42.144;24.794;2023-09-19T03:49:47;20.37;;;6.27;;
5349;SDS011;2697;42.144;24.794;2023-09-19T03:52:12;11.83;;;6.30;;
5349;SDS011;2697;42.144;24.794;2023-09-19T03:54:37;16.80;;;6.33;;
5349;SDS011;2697;42.144;24.794;2023-09-19T03:57:04;14.90;;;7.17;;
5349;SDS011;2697;42.144;24.794;2023-09-19T03:59:30;17.77;;;6.40;;
5349;SDS011;2697;42.144;24.794;2023-09-19T04:01:56;15.80;;;7.13;;
5349;SDS011;2697;42.144;24.794;2023-09-19T04:04:23;16.03;;;7.40;;
5349;SDS011;2697;42.144;24.794;2023-09-19T04:06:50;16.57;;;8.93;;
5349;SDS011;2697;42.144;24.794;2023-09-19T04:09:16;25.27;;;9.20;;
5349;SDS011;2697;42.144;24.794;2023-09-19T04:11:41;22.07;;;8.63;;
5349;SDS011;2697;42.144;24.794;2023-09-19T04:14:06;20.43;;;8.23;;
5349;SDS011;2697;42.144;24.794;2023-09-19T04:16:32;39.87;;;8.23;;
5349;SDS011;2697;42.144;24.794;2023-09-19T04:18:57;22.90;;;9.00;;
5349;SDS011;2697;42.144;24.794;2023-09-19T04:21:22;18.40;;;8.60;;
5349;SDS011;2697;42.144;24.794;2023-09-19T04:23:48;15.93;;;8.90;;
5349;SDS011;2697;42.144;24.794;2023-09-19T04:26:13;17.27;;;9.37;;
5349;SDS011;2697;42.144;24.794;2023-09-19T04:28:41;25.80;;;8.47;;
5349;SDS011;2697;42.144;24.794;2023-09-19T04:31:09;21.43;;;10.07;;
5349;SDS011;2697;42.144;24.794;2023-09-19T04:33:36;27.23;;;8.63;;
5349;SDS011;2697;42.144;24.794;2023-09-19T04:36:02;37.57;;;9.07;;
5349;SDS011;2697;42.144;24.794;2023-09-19T04:38:30;61.47;;;10.60;;
5349;SDS011;2697;42.144;24.794;2023-09-19T04:40:58;30.23;;;9.00;;
5349;SDS011;2697;42.144;24.794;2023-09-19T04:43:24;30.70;;;9.47;;
5349;SDS011;2697;42.144;24.794;2023-09-19T04:45:49;59.43;;;9.97;;
5349;SDS011;2697;42.144;24.794;2023-09-19T04:48:15;28.10;;;10.57;;
5349;SDS011;2697;42.144;24.794;2023-09-19T04:50:41;26.27;;;10.80;;
5349;SDS011;2697;42.144;24.794;2023-09-19T04:53:06;39.23;;;10.50;;
5349;SDS011;2697;42.144;24.794;2023-09-19T04:55:32;50.50;;;9.57;;
5349;SDS011;2697;42.144;24.794;2023-09-19T04:57:57;30.60;;;9.63;;
5349;SDS011;2697;42.144;24.794;2023-09-19T05:00:23;30.70;;;9.00;;
5349;SDS011;2697;42.144;24.794;2023-09-19T05:02:54;27.93;;;8.67;;
5349;SDS011;2697;42.144;24.794;2023-09-19T05:05:21;15.47;;;8.20;;
5349;SDS011;2697;42.144;24.794;2023-09-19T05:07:47;21.10;;;8.33;;
5349;SDS011;2697;42.144;24.794;2023-09-19T05:10:13;27.27;;;8.53;;
5349;SDS011;2697;42.144;24.794;2023-09-19T05:12:39;33.10;;;9.33;;
5349;SDS011;2697;42.144;24.794;2023-09-19T05:15:06;27.93;;;8.97;;
5349;SDS011;2697;42.144;24.794;2023-09-19T05:17:32;31.03;;;9.40;;
5349;SDS011;2697;42.144;24.794;2023-09-19T05:20:01;22.37;;;8.47;;
5349;SDS011;2697;42.144;24.794;2023-09-19T05:23:02;35.70;;;9.10;;
5349;SDS011;2697;42.144;24.794;2023-09-19T05:25:33;53.90;;;10.27;;
5349;SDS011;2697;42.144;24.794;2023-09-19T05:28:02;31.80;;;10.10;;
5349;SDS011;2697;42.144;24.794;2023-09-19T05:30:30;40.47;;;10.27;;
5349;SDS011;2697;42.144;24.794;2023-09-19T05:32:56;28.77;;;9.07;;
5349;SDS011;2697;42.144;24.794;2023-09-19T05:35:22;35.10;;;8.50;;
5349;SDS011;2697;42.144;24.794;2023-09-19T05:37:50;36.57;;;9.60;;
5349;SDS011;2697;42.144;24.794;2023-09-19T05:40:19;33.43;;;9.20;;
5349;SDS011;2697;42.144;24.794;2023-09-19T05:42:46;28.37;;;9.60;;
5349;SDS011;2697;42.144;24.794;2023-09-19T05:45:12;25.47;;;8.10;;
5349;SDS011;2697;42.144;24.794;2023-09-19T05:47:41;17.83;;;6.30;;
5349;SDS011;2697;42.144;24.794;2023-09-19T05:50:08;71.07;;;8.90;;
5349;SDS011;2697;42.144;24.794;2023-09-19T05:52:34;26.93;;;8.70;;
5349;SDS011;2697;42.144;24.794;2023-09-19T05:55:00;17.30;;;5.97;;
5349;SDS011;2697;42.144;24.794;2023-09-19T05:57:26;19.23;;;6.00;;
5349;SDS011;2697;42.144;24.794;2023-09-19T05:59:52;42.13;;;6.77;;
5349;SDS011;2697;42.144;24.794;2023-09-19T06:02:18;14.13;;;5.30;;
5349;SDS011;2697;42.144;24.794;2023-09-19T06:04:44;8.47;;;4.40;;
5349;SDS011;2697;42.144;24.794;2023-09-19T06:07:10;9.10;;;5.07;;
5349;SDS011;2697;42.144;24.794;2023-09-19T06:09:37;25.77;;;4.43;;
5349;SDS011;2697;42.144;24.794;2023-09-19T06:12:02;10.00;;;4.53;;
5349;SDS011;2697;42.144;24.794;2023-09-19T06:14:28;14.80;;;4.30;;
5349;SDS011;2697;42.144;24.794;2023-09-19T06:16:54;17.13;;;4.50;;
5349;SDS011;2697;42.144;24.794;2023-09-19T06:19:19;6.50;;;4.33;;
5349;SDS011;2697;42.144;24.794;2023-09-19T06:21:47;12.43;;;4.90;;
5349;SDS011;2697;42.144;24.794;2023-09-19T06:24:14;46.13;;;7.20;;
5349;SDS011;2697;42.144;24.794;2023-09-19T06:26:39;20.80;;;5.10;;
5349;SDS011;2697;42.144;24.794;2023-09-19T06:29:05;16.40;;;5.03;;
5349;SDS011;2697;42.144;24.794;2023-09-19T06:31:32;8.67;;;4.43;;
5349;SDS011;2697;42.144;24.794;2023-09-19T06:33:58;8.73;;;5.00;;
5349;SDS011;2697;42.144;24.794;2023-09-19T06:36:23;14.40;;;5.87;;
5349;SDS011;2697;42.144;24.794;2023-09-19T06:38:49;17.93;;;5.30;;
5349;SDS011;2697;42.144;24.794;2023-09-19T06:41:16;16.70;;;5.43;;
5349;SDS011;2697;42.144;24.794;2023-09-19T06:43:42;20.43;;;4.80;;
5349;SDS011;2697;42.144;24.794;2023-09-19T06:46:07;7.50;;;4.67;;
5349;SDS011;2697;42.144;24.794;2023-09-19T06:48:33;7.97;;;4.87;;
5349;SDS011;2697;42.144;24.794;2023-09-19T06:50:58;13.50;;;4.40;;
5349;SDS011;2697;42.144;24.794;2023-09-19T06:53:27;11.60;;;5.27;;
5349;SDS011;2697;42.144;24.794;2023-09-19T06:55:56;20.37;;;4.83;;
5349;SDS011;2697;42.144;24.794;2023-09-19T06:58:22;8.40;;;5.00;;
5349;SDS011;2697;42.144;24.794;2023-09-19T07:00:47;12.57;;;5.90;;
5349;SDS011;2697;42.144;24.794;2023-09-19T07:03:15;14.13;;;6.10;;
5349;SDS011;2697;42.144;24.794;2023-09-19T07:05:41;13.37;;;5.30;;
5349;SDS011;2697;42.144;24.794;2023-09-19T07:08:08;14.40;;;5.20;;
5349;SDS011;2697;42.144;24.794;2023-09-19T07:10:37;15.20;;;6.97;;
5349;SDS011;2697;42.144;24.794;2023-09-19T07:13:03;7.63;;;4.07;;
5349;SDS011;2697;42.144;24.794;2023-09-19T07:15:32;6.97;;;4.40;;
5349;SDS011;2697;42.144;24.794;2023-09-19T07:18:03;21.50;;;5.40;;
5349;SDS011;2697;42.144;24.794;2023-09-19T07:20:31;14.53;;;5.70;;
5349;SDS011;2697;42.144;24.794;2023-09-19T07:23:00;6.87;;;4.93;;
5349;SDS011;2697;42.144;24.794;2023-09-19T07:25:29;15.93;;;4.53;;
5349;SDS011;2697;42.144;24.794;2023-09-19T07:27:55;18.70;;;5.10;;
5349;SDS011;2697;42.144;24.794;2023-09-19T07:30:21;9.93;;;4.60;;
5349;SDS011;2697;42.144;24.794;2023-09-19T07:32:47;14.03;;;5.13;;
5349;SDS011;2697;42.144;24.794;2023-09-19T07:35:13;13.50;;;4.70;;
5349;SDS011;2697;42.144;24.794;2023-09-19T07:37:40;8.53;;;4.47;;
5349;SDS011;2697;42.144;24.794;2023-09-19T07:40:06;14.17;;;4.60;;
5349;SDS011;2697;42.144;24.794;2023-09-19T07:42:35;9.83;;;4.47;;
5349;SDS011;2697;42.144;24.794;2023-09-19T07:45:04;16.40;;;5.13;;
5349;SDS011;2697;42.144;24.794;2023-09-19T07:47:29;14.73;;;5.80;;
5349;SDS011;2697;42.144;24.794;2023-09-19T07:49:57;15.30;;;5.00;;
5349;SDS011;2697;42.144;24.794;2023-09-19T07:52:23;15.37;;;6.00;;
5349;SDS011;2697;42.144;24.794;2023-09-19T07:54:49;11.83;;;4.87;;
5349;SDS011;2697;42.144;24.794;2023-09-19T07:57:15;7.03;;;4.67;;
5349;SDS011;2697;42.144;24.794;2023-09-19T07:59:41;14.03;;;5.03;;
5349;SDS011;2697;42.144;24.794;2023-09-19T08:02:07;10.00;;;4.73;;
5349;SDS011;2697;42.144;24.794;2023-09-19T08:04:43;25.33;;;5.27;;
5349;SDS011;2697;42.144;24.794;2023-09-19T08:07:11;11.17;;;4.70;;
5349;SDS011;2697;42.144;24.794;2023-09-19T08:09:38;12.00;;;5.27;;
5349;SDS011;2697;42.144;24.794;2023-09-19T08:12:04;25.87;;;4.97;;
5349;SDS011;2697;42.144;24.794;2023-09-19T08:14:32;9.50;;;5.70;;
5349;SDS011;2697;42.144;24.794;2023-09-19T08:16:58;7.63;;;3.90;;
5349;SDS011;2697;42.144;24.794;2023-09-19T08:19:26;27.33;;;5.00;;
5349;SDS011;2697;42.144;24.794;2023-09-19T08:21:56;18.57;;;4.33;;
5349;SDS011;2697;42.144;24.794;2023-09-19T08:24:26;7.47;;;4.77;;
5349;SDS011;2697;42.144;24.794;2023-09-19T08:26:54;8.87;;;4.07;;
5349;SDS011;2697;42.144;24.794;2023-09-19T08:29:20;12.90;;;4.23;;
5349;SDS011;2697;42.144;24.794;2023-09-19T08:31:46;7.17;;;4.23;;
5349;SDS011;2697;42.144;24.794;2023-09-19T08:34:14;13.07;;;4.93;;
5349;SDS011;2697;42.144;24.794;2023-09-19T08:36:40;14.20;;;5.47;;
5349;SDS011;2697;42.144;24.794;2023-09-19T08:39:06;13.47;;;5.10;;
5349;SDS011;2697;42.144;24.794;2023-09-19T08:41:33;13.93;;;3.93;;
5349;SDS011;2697;42.144;24.794;2023-09-19T08:43:59;7.00;;;4.30;;
5349;SDS011;2697;42.144;24.794;2023-09-19T08:46:26;5.47;;;4.33;;
5349;SDS011;2697;42.144;24.794;2023-09-19T08:49:03;10.70;;;5.23;;
5349;SDS011;2697;42.144;24.794;2023-09-19T08:51:33;6.00;;;3.87;;
5349;SDS011;2697;42.144;24.794;2023-09-19T08:54:09;23.30;;;5.27;;
5349;SDS011;2697;42.144;24.794;2023-09-19T08:56:44;6.03;;;3.70;;
5349;SDS011;2697;42.144;24.794;2023-09-19T08:59:12;9.63;;;4.17;;
5349;SDS011;2697;42.144;24.794;2023-09-19T09:01:39;6.97;;;3.60;;
5349;SDS011;2697;42.144;24.794;2023-09-19T09:04:07;6.20;;;3.77;;
5349;SDS011;2697;42.144;24.794;2023-09-19T09:06:38;8.97;;;4.77;;
5349;SDS011;2697;42.144;24.794;2023-09-19T09:09:05;8.10;;;4.47;;
5349;SDS011;2697;42.144;24.794;2023-09-19T09:11:32;7.37;;;3.57;;
5349;SDS011;2697;42.144;24.794;2023-09-19T09:13:58;4.60;;;3.80;;
5349;SDS011;2697;42.144;24.794;2023-09-19T09:16:24;9.60;;;4.03;;
5349;SDS011;2697;42.144;24.794;2023-09-19T09:18:51;4.07;;;3.47;;
5349;SDS011;2697;42.144;24.794;2023-09-19T09:21:19;5.97;;;3.40;;
5349;SDS011;2697;42.144;24.794;2023-09-19T09:23:46;7.47;;;3.60;;
5349;SDS011;2697;42.144;24.794;2023-09-19T09:26:12;10.47;;;4.03;;
5349;SDS011;2697;42.144;24.794;2023-09-19T09:28:44;11.60;;;4.03;;
5349;SDS011;2697;42.144;24.794;2023-09-19T09:31:21;9.03;;;4.03;;
5349;SDS011;2697;42.144;24.794;2023-09-19T09:33:52;6.27;;;3.20;;
5349;SDS011;2697;42.144;24.794;2023-09-19T09:36:34;8.57;;;3.97;;
5349;SDS011;2697;42.144;24.794;2023-09-19T09:39:03;12.50;;;4.40;;
5349;SDS011;2697;42.144;24.794;2023-09-19T09:41:41;15.73;;;4.60;;
5349;SDS011;2697;42.144;24.794;2023-09-19T09:44:14;6.47;;;3.50;;
5349;SDS011;2697;42.144;24.794;2023-09-19T09:46:44;4.87;;;3.70;;
5349;SDS011;2697;42.144;24.794;2023-09-19T09:49:23;9.23;;;4.70;;
5349;SDS011;2697;42.144;24.794;2023-09-19T09:54:41;7.23;;;3.77;;
5349;SDS011;2697;42.144;24.794;2023-09-19T09:57:24;6.50;;;4.00;;
5349;SDS011;2697;42.144;24.794;2023-09-19T09:59:55;8.77;;;4.30;;
5349;SDS011;2697;42.144;24.794;2023-09-19T10:02:36;12.90;;;4.23;;
5349;SDS011;2697;42.144;24.794;2023-09-19T10:05:17;9.00;;;3.60;;
5349;SDS011;2697;42.144;24.794;2023-09-19T10:07:51;7.93;;;4.80;;
5349;SDS011;2697;42.144;24.794;2023-09-19T10:10:34;14.50;;;3.63;;
5349;SDS011;2697;42.144;24.794;2023-09-19T10:13:11;9.80;;;3.63;;
5349;SDS011;2697;42.144;24.794;2023-09-19T10:15:38;10.37;;;4.57;;
5349;SDS011;2697;42.144;24.794;2023-09-19T10:18:11;9.13;;;3.43;;
5349;SDS011;2697;42.144;24.794;2023-09-19T10:20:43;5.33;;;3.80;;
5349;SDS011;2697;42.144;24.794;2023-09-19T10:23:11;14.63;;;3.70;;
5349;SDS011;2697;42.144;24.794;2023-09-19T10:25:43;7.13;;;4.10;;
5349;SDS011;2697;42.144;24.794;2023-09-19T10:28:13;5.70;;;3.73;;
5349;SDS011;2697;42.144;24.794;2023-09-19T10:33:11;11.60;;;3.57;;
5349;SDS011;2697;42.144;24.794;2023-09-19T10:35:38;11.67;;;4.20;;
5349;SDS011;2697;42.144;24.794;2023-09-19T10:38:05;9.43;;;4.80;;
5349;SDS011;2697;42.144;24.794;2023-09-19T10:40:32;5.77;;;3.90;;
5349;SDS011;2697;42.144;24.794;2023-09-19T10:43:04;6.20;;;4.00;;
5349;SDS011;2697;42.144;24.794;2023-09-19T10:45:34;12.23;;;4.00;;
5349;SDS011;2697;42.144;24.794;2023-09-19T10:48:01;6.93;;;4.80;;
5349;SDS011;2697;42.144;24.794;2023-09-19T10:50:33;7.10;;;3.70;;
5349;SDS011;2697;42.144;24.794;2023-09-19T10:53:40;6.97;;;4.60;;
5349;SDS011;2697;42.144;24.794;2023-09-19T10:56:16;15.83;;;3.97;;
5349;SDS011;2697;42.144;24.794;2023-09-19T10:58:46;10.20;;;4.70;;
5349;SDS011;2697;42.144;24.794;2023-09-19T11:01:14;9.53;;;3.90;;
5349;SDS011;2697;42.144;24.794;2023-09-19T11:03:41;7.07;;;3.80;;
5349;SDS011;2697;42.144;24.794;2023-09-19T11:06:19;7.00;;;3.30;;
5349;SDS011;2697;42.144;24.794;2023-09-19T11:08:54;13.93;;;3.57;;
5349;SDS011;2697;42.144;24.794;2023-09-19T11:25:42;12.40;;;4.90;;
5349;SDS011;2697;42.144;24.794;2023-09-19T11:30:46;7.63;;;4.60;;
5349;SDS011;2697;42.144;24.794;2023-09-19T11:43:51;7.03;;;4.07;;
5349;SDS011;2697;42.144;24.794;2023-09-19T11:46:20;5.27;;;4.03;;
5349;SDS011;2697;42.144;24.794;2023-09-19T11:48:49;6.27;;;4.30;;
5349;SDS011;2697;42.144;24.794;2023-09-19T11:51:24;5.13;;;3.73;;
5349;SDS011;2697;42.144;24.794;2023-09-19T11:53:55;6.23;;;3.90;;
5349;SDS011;2697;42.144;24.794;2023-09-19T11:56:22;16.07;;;4.93;;
5349;SDS011;2697;42.144;24.794;2023-09-19T11:58:56;8.93;;;4.50;;
5349;SDS011;2697;42.144;24.794;2023-09-19T12:01:28;11.43;;;4.30;;
5349;SDS011;2697;42.144;24.794;2023-09-19T12:03:56;6.70;;;4.40;;
5349;SDS011;2697;42.144;24.794;2023-09-19T12:06:23;4.77;;;3.60;;
5349;SDS011;2697;42.144;24.794;2023-09-19T12:08:49;21.00;;;4.57;;
5349;SDS011;2697;42.144;24.794;2023-09-19T12:11:16;14.53;;;5.97;;
5349;SDS011;2697;42.144;24.794;2023-09-19T12:13:45;6.93;;;3.63;;
5349;SDS011;2697;42.144;24.794;2023-09-19T12:16:13;8.07;;;3.80;;
5349;SDS011;2697;42.144;24.794;2023-09-19T12:18:43;7.53;;;4.00;;
5349;SDS011;2697;42.144;24.794;2023-09-19T12:26:25;11.23;;;4.40;;
5349;SDS011;2697;42.144;24.794;2023-09-19T12:28:54;8.80;;;4.47;;
5349;SDS011;2697;42.144;24.794;2023-09-19T12:31:20;12.03;;;3.90;;
5349;SDS011;2697;42.144;24.794;2023-09-19T12:33:45;6.03;;;3.90;;
5349;SDS011;2697;42.144;24.794;2023-09-19T12:36:23;5.23;;;3.60;;
5349;SDS011;2697;42.144;24.794;2023-09-19T12:38:50;7.57;;;3.60;;
5349;SDS011;2697;42.144;24.794;2023-09-19T12:41:18;13.93;;;3.43;;
5349;SDS011;2697;42.144;24.794;2023-09-19T12:43:43;7.67;;;3.60;;
5349;SDS011;2697;42.144;24.794;2023-09-19T12:46:09;5.80;;;3.97;;
5349;SDS011;2697;42.144;24.794;2023-09-19T12:48:34;11.80;;;4.60;;
5349;SDS011;2697;42.144;24.794;2023-09-19T12:53:36;10.20;;;4.17;;
5349;SDS011;2697;42.144;24.794;2023-09-19T12:56:11;9.47;;;4.07;;
5349;SDS011;2697;42.144;24.794;2023-09-19T12:58:57;6.00;;;4.30;;
5349;SDS011;2697;42.144;24.794;2023-09-19T13:01:27;9.40;;;4.37;;
5349;SDS011;2697;42.144;24.794;2023-09-19T13:06:47;7.70;;;4.13;;
5349;SDS011;2697;42.144;24.794;2023-09-19T13:09:14;11.10;;;3.80;;
5349;SDS011;2697;42.144;24.794;2023-09-19T13:11:41;15.93;;;4.13;;
5349;SDS011;2697;42.144;24.794;2023-09-19T13:17:00;9.67;;;4.87;;
5349;SDS011;2697;42.144;24.794;2023-09-19T13:19:39;10.07;;;4.07;;
5349;SDS011;2697;42.144;24.794;2023-09-19T13:25:03;11.13;;;4.53;;
5349;SDS011;2697;42.144;24.794;2023-09-19T13:27:33;21.33;;;4.87;;
5349;SDS011;2697;42.144;24.794;2023-09-19T13:29:59;8.77;;;4.27;;
5349;SDS011;2697;42.144;24.794;2023-09-19T13:32:25;13.53;;;5.03;;
5349;SDS011;2697;42.144;24.794;2023-09-19T13:34:51;9.23;;;4.83;;
5349;SDS011;2697;42.144;24.794;2023-09-19T13:37:16;9.30;;;3.80;;
5349;SDS011;2697;42.144;24.794;2023-09-19T13:39:43;5.87;;;3.87;;
5349;SDS011;2697;42.144;24.794;2023-09-19T13:42:12;10.33;;;3.97;;
5349;SDS011;2697;42.144;24.794;2023-09-19T13:44:41;11.23;;;4.87;;
5349;SDS011;2697;42.144;24.794;2023-09-19T13:47:07;20.13;;;5.40;;
5349;SDS011;2697;42.144;24.794;2023-09-19T13:49:38;16.17;;;5.40;;
5349;SDS011;2697;42.144;24.794;2023-09-19T13:52:03;14.83;;;5.20;;
5349;SDS011;2697;42.144;24.794;2023-09-19T13:54:30;13.60;;;5.30;;
5349;SDS011;2697;42.144;24.794;2023-09-19T13:56:55;12.50;;;4.10;;
5349;SDS011;2697;42.144;24.794;2023-09-19T13:59:21;10.30;;;4.07;;
5349;SDS011;2697;42.144;24.794;2023-09-19T14:01:49;8.00;;;3.90;;
5349;SDS011;2697;42.144;24.794;2023-09-19T14:04:15;6.97;;;4.03;;
5349;SDS011;2697;42.144;24.794;2023-09-19T14:06:41;8.73;;;3.60;;
5349;SDS011;2697;42.144;24.794;2023-09-19T14:09:07;10.87;;;4.90;;
5349;SDS011;2697;42.144;24.794;2023-09-19T14:11:33;14.17;;;4.17;;
5349;SDS011;2697;42.144;24.794;2023-09-19T14:13:58;19.67;;;4.97;;
5349;SDS011;2697;42.144;24.794;2023-09-19T14:16:25;18.10;;;4.70;;
5349;SDS011;2697;42.144;24.794;2023-09-19T14:18:55;16.83;;;5.67;;
5349;SDS011;2697;42.144;24.794;2023-09-19T14:21:20;12.83;;;4.70;;
5349;SDS011;2697;42.144;24.794;2023-09-19T14:23:45;12.03;;;4.10;;
5349;SDS011;2697;42.144;24.794;2023-09-19T14:26:11;32.17;;;4.80;;
5349;SDS011;2697;42.144;24.794;2023-09-19T14:28:36;6.77;;;4.40;;
5349;SDS011;2697;42.144;24.794;2023-09-19T14:31:10;26.53;;;4.63;;
5349;SDS011;2697;42.144;24.794;2023-09-19T14:33:36;13.87;;;5.07;;
5349;SDS011;2697;42.144;24.794;2023-09-19T14:36:03;8.83;;;4.50;;
5349;SDS011;2697;42.144;24.794;2023-09-19T14:38:31;11.03;;;4.77;;
5349;SDS011;2697;42.144;24.794;2023-09-19T14:41:02;12.27;;;4.83;;
5349;SDS011;2697;42.144;24.794;2023-09-19T14:43:28;11.90;;;4.10;;
5349;SDS011;2697;42.144;24.794;2023-09-19T14:45:55;19.13;;;5.37;;
5349;SDS011;2697;42.144;24.794;2023-09-19T14:48:32;9.30;;;4.70;;
5349;SDS011;2697;42.144;24.794;2023-09-19T14:51:05;7.43;;;3.80;;
5349;SDS011;2697;42.144;24.794;2023-09-19T14:53:32;14.60;;;3.53;;
5349;SDS011;2697;42.144;24.794;2023-09-19T14:56:01;6.70;;;3.70;;
5349;SDS011;2697;42.144;24.794;2023-09-19T14:58:31;21.03;;;5.80;;
5349;SDS011;2697;42.144;24.794;2023-09-19T15:01:03;11.63;;;5.30;;
5349;SDS011;2697;42.144;24.794;2023-09-19T15:03:35;23.83;;;5.23;;
5349;SDS011;2697;42.144;24.794;2023-09-19T15:06:04;4.83;;;3.27;;
5349;SDS011;2697;42.144;24.794;2023-09-19T15:08:31;10.40;;;3.97;;
5349;SDS011;2697;42.144;24.794;2023-09-19T15:10:59;5.03;;;3.13;;
5349;SDS011;2697;42.144;24.794;2023-09-19T15:13:28;8.20;;;3.90;;
5349;SDS011;2697;42.144;24.794;2023-09-19T15:16:01;10.97;;;3.37;;
5349;SDS011;2697;42.144;24.794;2023-09-19T15:18:27;9.37;;;3.37;;
5349;SDS011;2697;42.144;24.794;2023-09-19T15:20:55;9.00;;;3.10;;
5349;SDS011;2697;42.144;24.794;2023-09-19T15:23:21;8.10;;;3.80;;
5349;SDS011;2697;42.144;24.794;2023-09-19T15:25:49;9.40;;;3.60;;
5349;SDS011;2697;42.144;24.794;2023-09-19T15:28:16;5.80;;;3.30;;
5349;SDS011;2697;42.144;24.794;2023-09-19T15:30:41;10.43;;;2.70;;
5349;SDS011;2697;42.144;24.794;2023-09-19T15:33:06;20.53;;;4.30;;
5349;SDS011;2697;42.144;24.794;2023-09-19T15:35:32;8.83;;;3.53;;
5349;SDS011;2697;42.144;24.794;2023-09-19T15:37:58;7.77;;;3.43;;
5349;SDS011;2697;42.144;24.794;2023-09-19T15:40:25;13.03;;;2.93;;
5349;SDS011;2697;42.144;24.794;2023-09-19T15:42:52;4.00;;;3.10;;
5349;SDS011;2697;42.144;24.794;2023-09-19T15:45:19;8.37;;;4.00;;
5349;SDS011;2697;42.144;24.794;2023-09-19T15:47:44;9.70;;;3.90;;
5349;SDS011;2697;42.144;24.794;2023-09-19T15:50:10;15.73;;;3.67;;
5349;SDS011;2697;42.144;24.794;2023-09-19T15:52:38;14.67;;;3.67;;
5349;SDS011;2697;42.144;24.794;2023-09-19T15:55:05;17.30;;;4.27;;
5349;SDS011;2697;42.144;24.794;2023-09-19T15:57:31;11.30;;;3.70;;